Date,TemperatureHighF,TemperatureAvgF,TemperatureLowF,DewpointHighF,DewpointAvgF,DewpointLowF,HumidityHigh,HumidityAvg,HumidityLow,PressureMaxIn,PressureMinIn,WindSpeedMaxMPH,WindSpeedAvgMPH,GustSpeedMaxMPH,PrecipitationSumIn
2013-1-1,59.4,48.3,41.7,26.5,20.3,14.1,49,34,25,30.12,30.03,5,0,5,0.24
2013-1-2,63.5,49.2,41.5,26.1,17.8,12.0,39,29,24,30.09,29.97,0,0,0,0.24
2013-1-3,59.5,47.3,41.0,25.2,19.6,14.3,46,33,25,30.12,30.00,3,0,3,0.24
2013-1-4,61.5,49.5,43.2,24.6,20.5,16.6,40,32,24,30.15,30.00,3,0,3,0.24
2013-1-5,52.5,48.4,43.0,38.0,28.0,19.5,62,45,36,30.09,29.91,3,0,3,0.24
2013-1-6,59.7,50.0,45.9,40.8,32.2,23.1,65,52,29,30.03,29.91,3,0,3,0.24
2013-1-7,60.6,51.0,44.4,43.0,30.9,25.2,66,48,27,30.12,30.00,0,0,0,0.24
2013-1-8,64.8,52.1,46.4,43.2,29.5,23.1,62,43,24,30.09,29.97,0,0,0,0.24
2013-1-9,55.6,49.7,45.5,37.6,27.1,15.9,57,42,28,30.00,29.83,8,0,8,0.24
2013-1-10,57.0,47.0,41.7,21.6,16.9,13.5,38,30,25,30.03,29.91,6,0,6,0.00
2013-1-11,59.4,47.1,42.3,23.6,17.3,12.3,39,30,25,30.12,29.97,7,0,7,0.24
2013-1-12,55.8,45.4,38.7,21.4,17.6,11.4,45,33,25,30.09,29.97,3,0,3,0.24
2013-1-13,56.7,44.0,34.9,21.3,13.9,8.4,39,29,25,30.12,30.00,3,0,3,0.24
2013-1-14,58.5,43.9,37.4,22.8,12.8,8.1,29,28,25,30.24,30.09,4,0,4,0.00
2013-1-15,58.3,44.7,38.8,22.6,16.2,11.4,45,32,25,30.33,30.24,0,0,0,0.00
2013-1-16,62.2,47.9,38.8,25.0,17.7,11.5,40,30,24,30.30,30.09,4,0,4,0.00
2013-1-17,67.1,51.7,41.7,28.1,20.3,13.7,41,29,23,30.12,29.97,4,0,4,0.00
2013-1-18,70.0,54.7,45.1,30.2,20.9,15.6,31,27,22,30.06,29.97,3,0,3,0.00
2013-1-19,69.1,55.7,46.0,29.8,20.9,14.7,29,26,23,30.09,30.00,4,0,4,0.00
2013-1-20,69.8,55.9,47.1,30.2,20.9,15.3,28,25,22,30.06,29.97,3,0,3,0.00
2013-1-21,69.1,54.1,45.1,29.8,20.4,14.4,32,27,23,30.03,29.91,0,0,0,0.00
2013-1-22,64.2,53.4,47.1,26.7,21.3,18.2,34,28,24,29.94,29.83,3,0,3,0.00
2013-1-23,54.5,52.2,50.5,39.6,29.2,21.7,63,42,30,29.94,29.80,3,0,3,0.12
2013-1-24,63.7,55.7,51.6,45.9,38.6,31.8,65,54,34,30.03,29.91,0,0,0,0.04
2013-1-25,70.7,59.4,53.6,46.6,35.7,29.7,62,43,23,30.03,29.88,0,0,0,0.00
2013-1-26,62.2,53.7,48.4,40.0,33.4,17.6,58,47,24,29.94,29.83,11,0,11,0.00
2013-1-27,61.2,50.5,44.2,24.6,19.1,15.9,35,29,24,30.03,29.91,8,0,8,0.00
2013-1-28,49.5,46.8,46.0,24.9,18.9,15.9,39,33,29,30.06,30.00,5,0,5,0.00
2013-1-30,68.0,57.6,50.4,28.9,24.3,19.6,36,28,23,30.12,30.09,4,0,4,0.00
2013-1-31,69.1,55.6,47.5,30.5,25.9,22.3,45,32,23,30.12,30.00,4,0,4,0.00